createdAt,value
2017-12-04T00:00:26.734Z,0.75
2017-12-04T00:01:26.688Z,0.65
2017-12-04T00:02:26.663Z,0.75
2017-12-04T00:03:26.606Z,0.67
2017-12-04T00:04:26.566Z,0.71
2017-12-04T00:05:26.519Z,0.67
2017-12-04T00:06:26.449Z,0.71
2017-12-04T00:07:26.451Z,0.79
2017-12-04T00:08:26.342Z,0.72
2017-12-04T00:09:26.322Z,0.78
2017-12-04T00:10:26.258Z,0.72
2017-12-04T00:11:26.220Z,0.83
2017-12-04T00:12:26.164Z,0.92
2017-12-04T00:13:26.121Z,0.89
2017-12-04T00:14:26.085Z,0.89
2017-12-04T00:15:26.039Z,0.86
2017-12-04T00:16:25.980Z,0.89
2017-12-04T00:17:25.936Z,0.90
2017-12-04T00:18:25.888Z,0.88
2017-12-04T00:19:25.839Z,0.89
2017-12-04T00:20:25.795Z,0.90
2017-12-04T00:21:25.753Z,0.92
2017-12-04T00:22:25.700Z,0.86
2017-12-04T00:23:25.652Z,0.89
2017-12-04T00:24:25.618Z,0.82
2017-12-04T00:25:25.558Z,0.79
2017-12-04T00:26:25.520Z,0.83
2017-12-04T00:27:25.490Z,0.82
2017-12-04T00:28:25.430Z,0.80
2017-12-04T00:29:25.370Z,0.86
2017-12-04T00:30:25.315Z,0.78
2017-12-04T00:31:25.276Z,0.80
2017-12-04T00:32:25.233Z,0.79
2017-12-04T00:33:25.178Z,0.86
2017-12-04T00:34:25.134Z,0.92
2017-12-04T00:35:25.093Z,0.90
2017-12-04T00:36:25.042Z,0.92
2017-12-04T00:37:24.990Z,0.96
2017-12-04T00:38:24.946Z,0.90
2017-12-04T00:39:24.901Z,0.85
2017-12-04T00:40:24.863Z,0.94
2017-12-04T00:41:24.808Z,0.90
2017-12-04T00:42:24.761Z,0.92
2017-12-04T00:43:24.719Z,0.92
2017-12-04T00:44:24.666Z,0.90
2017-12-04T00:45:24.620Z,0.96
2017-12-04T00:46:24.566Z,0.90
2017-12-04T00:47:24.529Z,0.92
2017-12-04T00:48:24.477Z,0.92
2017-12-04T00:49:24.437Z,0.88
2017-12-04T00:50:24.384Z,0.89
2017-12-04T00:51:24.339Z,0.97
2017-12-04T00:52:24.288Z,1.03
2017-12-04T00:53:24.249Z,1.08
2017-12-04T00:54:24.205Z,1.03
2017-12-04T00:55:24.152Z,1.06
2017-12-04T00:56:24.109Z,1.08
2017-12-04T00:57:24.081Z,1.01
2017-12-04T00:58:24.020Z,1.04
2017-12-04T00:59:23.966Z,1.06
2017-12-04T01:00:23.924Z,1.07
2017-12-04T01:01:23.876Z,1.10
2017-12-04T01:02:23.816Z,1.04
2017-12-04T01:03:23.791Z,1.10
2017-12-04T01:04:23.730Z,1.10
2017-12-04T01:05:23.684Z,1.19
2017-12-04T01:06:23.638Z,1.19
2017-12-04T01:07:23.582Z,1.18
2017-12-04T01:08:23.540Z,1.29
2017-12-04T01:09:23.497Z,1.26
2017-12-04T01:10:23.455Z,1.16
2017-12-04T01:11:23.401Z,1.19
2017-12-04T01:12:23.368Z,1.24
2017-12-04T01:13:23.298Z,1.21
2017-12-04T01:14:23.272Z,1.28
2017-12-04T01:15:23.205Z,1.28
2017-12-04T01:16:23.159Z,1.24
2017-12-04T01:17:23.122Z,1.15
2017-12-04T01:18:23.074Z,1.26
2017-12-04T01:19:23.040Z,1.28
2017-12-04T01:20:22.977Z,1.33
2017-12-04T01:21:22.938Z,1.24
2017-12-04T01:22:22.884Z,1.15
2017-12-04T01:23:22.834Z,1.29
2017-12-04T01:25:54.717Z,1.32
2017-12-04T01:26:54.601Z,1.33
2017-12-04T01:28:47.773Z,1.34
2017-12-04T01:29:47.666Z,1.36
2017-12-04T01:31:40.924Z,1.34
2017-12-04T01:32:40.822Z,1.33
2017-12-04T01:34:34.023Z,1.46
2017-12-04T01:35:33.960Z,1.40
2017-12-04T01:37:27.742Z,1.36
2017-12-04T01:38:27.583Z,1.40
2017-12-04T01:40:23.803Z,1.46
2017-12-04T01:41:23.578Z,1.50
2017-12-04T01:43:18.451Z,1.52
2017-12-04T01:44:18.175Z,1.51
2017-12-04T01:46:11.486Z,1.54
2017-12-04T01:47:11.215Z,1.54
2017-12-04T01:49:04.625Z,1.55
2017-12-04T01:50:04.297Z,1.55
2017-12-04T01:51:57.387Z,1.58
2017-12-04T01:52:57.317Z,1.50
2017-12-04T01:54:50.509Z,1.54
2017-12-04T01:55:50.584Z,1.62
2017-12-04T01:57:43.495Z,1.60
2017-12-04T01:58:43.480Z,1.61
2017-12-04T02:00:36.816Z,1.51
2017-12-04T02:01:36.509Z,1.51
2017-12-04T02:03:29.643Z,1.47
2017-12-04T02:04:29.785Z,1.55
2017-12-04T02:06:22.683Z,1.52
2017-12-04T02:07:22.642Z,1.54
2017-12-04T02:09:16.333Z,1.58
2017-12-04T02:10:16.204Z,1.54
2017-12-04T02:12:09.304Z,1.58
2017-12-04T02:13:09.199Z,1.58
2017-12-04T02:15:02.251Z,1.58
2017-12-04T02:16:02.189Z,1.69
2017-12-04T02:17:56.882Z,1.55
2017-12-04T02:18:56.780Z,1.65
2017-12-04T02:20:51.762Z,1.62
2017-12-04T02:21:49.870Z,1.61
2017-12-04T02:22:49.822Z,1.79
2017-12-04T02:23:49.778Z,1.73
2017-12-04T02:24:49.873Z,1.75
2017-12-04T02:25:49.662Z,1.80
2017-12-04T02:26:49.587Z,1.73
2017-12-04T02:27:49.563Z,1.75
2017-12-04T02:28:49.505Z,1.78
2017-12-04T02:29:49.459Z,1.78
2017-12-04T02:30:49.464Z,1.76
2017-12-04T02:31:49.354Z,1.72
2017-12-04T02:32:49.323Z,1.80
2017-12-04T02:33:49.272Z,1.72
2017-12-04T02:34:49.217Z,1.76
2017-12-04T02:35:49.177Z,1.80
2017-12-04T02:36:49.128Z,1.82
2017-12-04T02:37:49.092Z,1.80
2017-12-04T02:38:49.039Z,1.79
2017-12-04T02:39:48.981Z,1.91
2017-12-04T02:40:48.934Z,1.83
2017-12-04T02:41:48.911Z,1.85
2017-12-04T02:42:48.860Z,1.79
2017-12-04T02:43:48.821Z,1.72
2017-12-04T02:44:48.758Z,1.75
2017-12-04T02:45:48.709Z,1.78
2017-12-04T02:46:48.674Z,1.80
2017-12-04T02:47:48.613Z,1.75
2017-12-04T02:48:48.576Z,1.71
2017-12-04T02:49:48.527Z,1.82
2017-12-04T02:50:48.481Z,1.80
2017-12-04T02:51:48.437Z,1.78
2017-12-04T02:52:48.384Z,1.78
2017-12-04T02:53:48.335Z,1.76
2017-12-04T02:54:48.285Z,1.76
2017-12-04T02:55:48.261Z,1.83
2017-12-04T02:56:48.198Z,1.76
2017-12-04T02:57:48.153Z,1.76
2017-12-04T02:58:48.103Z,1.75
2017-12-04T02:59:48.061Z,1.79
2017-12-04T03:00:48.012Z,1.78
2017-12-04T03:01:47.971Z,1.83
2017-12-04T03:02:47.931Z,1.76
2017-12-04T03:03:47.882Z,1.76
2017-12-04T03:04:47.835Z,1.83
2017-12-04T03:05:47.788Z,1.78
2017-12-04T03:06:47.740Z,1.72
2017-12-04T03:07:47.689Z,1.75
2017-12-04T03:08:47.654Z,1.72
2017-12-04T03:09:49.160Z,1.75
2017-12-04T03:10:47.563Z,1.73
2017-12-04T03:11:47.507Z,1.73
2017-12-04T03:12:47.467Z,1.73
2017-12-04T03:13:47.417Z,1.60
2017-12-04T03:14:47.377Z,1.79
2017-12-04T03:15:47.313Z,1.72
2017-12-04T03:16:47.272Z,1.65
2017-12-04T03:17:47.221Z,1.65
2017-12-04T03:18:47.178Z,1.64
2017-12-04T03:19:47.140Z,1.64
2017-12-04T03:20:47.079Z,1.65
2017-12-04T03:21:47.027Z,1.52
2017-12-04T03:22:46.987Z,1.62
2017-12-04T03:23:46.945Z,1.72
2017-12-04T03:24:46.899Z,1.54
2017-12-04T03:25:46.850Z,1.62
2017-12-04T03:26:46.803Z,1.55
2017-12-04T03:27:46.772Z,1.54
2017-12-04T03:28:46.704Z,1.61
2017-12-04T03:29:46.662Z,1.60
2017-12-04T03:30:46.624Z,1.51
2017-12-04T03:31:46.577Z,1.57
2017-12-04T03:32:46.527Z,1.54
2017-12-04T03:33:46.472Z,1.57
2017-12-04T03:34:46.435Z,1.62
2017-12-04T03:35:46.383Z,1.47
2017-12-04T03:36:46.347Z,1.57
2017-12-04T03:37:46.289Z,1.61
2017-12-04T03:38:46.260Z,1.55
2017-12-04T03:39:46.208Z,1.55
2017-12-04T03:40:46.174Z,1.55
2017-12-04T03:41:46.108Z,1.54
2017-12-04T03:42:46.058Z,1.52
2017-12-04T03:43:46.009Z,1.46
2017-12-04T03:44:45.968Z,1.51
2017-12-04T03:45:45.928Z,1.50
2017-12-04T03:46:45.880Z,1.52
2017-12-04T03:47:45.823Z,1.51
2017-12-04T03:48:45.774Z,1.54
2017-12-04T03:49:45.741Z,1.47
2017-12-04T03:50:45.686Z,1.51
2017-12-04T03:51:45.641Z,1.52
2017-12-04T03:52:45.599Z,1.52
2017-12-04T03:53:45.554Z,1.54
2017-12-04T03:54:45.496Z,1.47
2017-12-04T03:55:45.449Z,1.52
2017-12-04T03:56:45.428Z,1.54
2017-12-04T03:57:45.360Z,1.55
2017-12-04T03:58:45.317Z,1.55
2017-12-04T03:59:45.271Z,1.51
2017-12-04T04:00:45.226Z,1.55
2017-12-04T04:01:45.177Z,1.58
2017-12-04T04:02:45.126Z,1.58
2017-12-04T04:03:45.085Z,1.55
2017-12-04T04:04:45.051Z,1.54
2017-12-04T04:05:44.979Z,1.54
2017-12-04T04:06:44.958Z,1.54
2017-12-04T04:07:46.664Z,1.55
2017-12-04T04:08:44.848Z,1.52
2017-12-04T04:09:44.822Z,1.61
2017-12-04T04:10:44.761Z,1.64
2017-12-04T04:11:44.742Z,1.47
2017-12-04T04:12:44.675Z,1.50
2017-12-04T04:13:44.626Z,1.52
2017-12-04T04:14:44.570Z,1.51
2017-12-04T04:15:44.553Z,1.47
2017-12-04T04:16:44.484Z,1.50
2017-12-04T04:17:44.448Z,1.46
2017-12-04T04:18:44.392Z,1.46
2017-12-04T04:19:44.349Z,1.46
2017-12-04T04:20:44.295Z,1.46
2017-12-04T04:21:44.245Z,1.51
2017-12-04T04:22:44.213Z,1.51
2017-12-04T04:23:44.156Z,1.51
2017-12-04T04:24:44.114Z,1.50
2017-12-04T04:25:44.074Z,1.44
2017-12-04T04:26:44.044Z,1.50
2017-12-04T04:27:43.980Z,1.54
2017-12-04T04:28:43.950Z,1.51
2017-12-04T04:29:43.888Z,1.55
2017-12-04T04:30:43.830Z,1.50
2017-12-04T04:31:43.779Z,1.58
2017-12-04T04:32:43.741Z,1.50
2017-12-04T04:33:43.716Z,1.52
2017-12-04T04:34:43.652Z,1.51
2017-12-04T04:35:43.600Z,1.52
2017-12-04T04:36:43.560Z,1.55
2017-12-04T04:37:43.510Z,1.58
2017-12-04T04:38:43.445Z,1.60
2017-12-04T04:39:43.410Z,1.52
2017-12-04T04:40:43.426Z,1.47
2017-12-04T04:41:43.320Z,1.54
2017-12-04T04:42:43.276Z,1.61
2017-12-04T04:43:43.242Z,1.55
2017-12-04T04:44:43.192Z,1.58
2017-12-04T04:45:43.160Z,1.62
2017-12-04T04:46:43.110Z,1.58
2017-12-04T04:47:43.053Z,1.52
2017-12-04T04:48:43.021Z,1.58
2017-12-04T04:49:42.965Z,1.61
2017-12-04T04:50:42.914Z,1.60
2017-12-04T04:51:42.860Z,1.52
2017-12-04T04:52:42.814Z,1.60
2017-12-04T04:53:42.763Z,1.54
2017-12-04T04:54:42.729Z,1.55
2017-12-04T04:55:42.689Z,1.58
2017-12-04T04:56:42.634Z,1.58
2017-12-04T04:57:42.601Z,1.47
2017-12-04T04:58:42.533Z,1.50
2017-12-04T04:59:42.506Z,1.55
2017-12-04T05:00:42.440Z,1.46
2017-12-04T05:01:42.438Z,1.52
2017-12-04T05:02:42.370Z,1.50
2017-12-04T05:03:42.300Z,1.52
2017-12-04T05:04:42.271Z,1.47
2017-12-04T05:05:42.235Z,1.50
2017-12-04T05:06:42.190Z,1.50
2017-12-04T05:07:42.159Z,1.46
2017-12-04T05:08:42.085Z,1.54
2017-12-04T05:09:42.041Z,1.51
2017-12-04T05:10:41.991Z,1.51
2017-12-04T05:11:41.949Z,1.44
2017-12-04T05:12:41.891Z,1.47
2017-12-04T05:13:41.863Z,1.43
2017-12-04T05:14:41.803Z,1.39
2017-12-04T05:15:41.755Z,1.44
2017-12-04T05:16:41.700Z,1.50
2017-12-04T05:17:41.678Z,1.51
2017-12-04T05:18:41.612Z,1.42
2017-12-04T05:19:41.569Z,1.50
2017-12-04T05:20:41.554Z,1.40
2017-12-04T05:21:41.468Z,1.43
2017-12-04T05:22:41.434Z,1.52
2017-12-04T05:23:41.401Z,1.50
2017-12-04T05:24:41.347Z,1.52
2017-12-04T05:25:41.288Z,1.54
2017-12-04T05:26:41.273Z,1.54
2017-12-04T05:27:41.188Z,1.46
2017-12-04T05:28:41.137Z,1.61
2017-12-04T05:29:41.098Z,1.54
2017-12-04T05:30:41.076Z,1.65
2017-12-04T05:31:41.006Z,1.72
2017-12-04T05:32:40.964Z,1.65
2017-12-04T05:33:40.912Z,1.61
2017-12-04T05:34:40.884Z,1.62
2017-12-04T05:35:40.843Z,1.69
2017-12-04T05:36:40.775Z,1.79
2017-12-04T05:37:40.824Z,1.61
2017-12-04T05:38:40.690Z,1.58
2017-12-04T05:39:40.640Z,1.69
2017-12-04T05:40:40.593Z,1.79
2017-12-04T05:41:40.546Z,1.82
2017-12-04T05:42:40.512Z,1.75
2017-12-04T05:43:40.456Z,1.73
2017-12-04T05:44:40.401Z,1.79
2017-12-04T05:45:40.356Z,1.75
2017-12-04T05:46:40.317Z,1.78
2017-12-04T05:47:40.270Z,1.83
2017-12-04T05:48:40.241Z,1.82
2017-12-04T05:49:40.179Z,1.76
2017-12-04T05:50:40.126Z,1.79
2017-12-04T05:51:40.101Z,1.75
2017-12-04T05:52:40.052Z,1.79
2017-12-04T05:53:39.993Z,1.89
2017-12-04T05:54:39.952Z,1.80
2017-12-04T05:55:39.909Z,1.82
2017-12-04T05:56:39.852Z,1.80
2017-12-04T05:57:39.803Z,1.87
2017-12-04T05:58:39.751Z,1.78
2017-12-04T05:59:39.710Z,1.85
2017-12-04T06:00:39.672Z,1.82
2017-12-04T06:01:39.641Z,1.82
2017-12-04T06:02:39.583Z,1.83
2017-12-04T06:03:39.534Z,1.72
2017-12-04T06:04:39.491Z,1.79
2017-12-04T06:05:39.441Z,1.79
2017-12-04T06:06:39.393Z,1.80
2017-12-04T06:07:39.379Z,1.85
2017-12-04T06:08:39.308Z,1.91
2017-12-04T06:09:39.255Z,1.91
2017-12-04T06:10:39.195Z,1.99
2017-12-04T06:11:39.157Z,1.99
2017-12-04T06:12:39.114Z,1.94
2017-12-04T06:13:39.631Z,1.93
2017-12-04T06:14:39.031Z,2.01
2017-12-04T06:15:38.972Z,1.97
2017-12-04T06:16:38.949Z,1.98
2017-12-04T06:17:38.868Z,1.97
2017-12-04T06:18:38.826Z,1.87
2017-12-04T06:19:38.777Z,1.97
2017-12-04T06:20:38.728Z,2.02
2017-12-04T06:21:38.687Z,1.97
2017-12-04T06:22:38.640Z,2.06
2017-12-04T06:23:38.598Z,1.98
2017-12-04T06:24:38.545Z,2.02
2017-12-04T06:25:38.514Z,2.02
2017-12-04T06:26:38.453Z,1.99
2017-12-04T06:27:38.417Z,1.98
2017-12-04T06:28:38.363Z,1.99
2017-12-04T06:29:38.329Z,2.06
2017-12-04T06:30:38.278Z,2.04
2017-12-04T06:31:38.224Z,1.97
2017-12-04T06:32:38.188Z,1.99
2017-12-04T06:33:38.131Z,2.09
2017-12-04T06:34:38.090Z,1.98
2017-12-04T06:35:38.046Z,2.09
2017-12-04T06:36:37.984Z,2.10
2017-12-04T06:37:37.940Z,2.16
2017-12-04T06:38:37.903Z,2.15
2017-12-04T06:39:37.847Z,2.17
2017-12-04T06:40:37.798Z,2.15
2017-12-04T06:41:37.760Z,2.15
2017-12-04T06:42:37.710Z,2.15
2017-12-04T06:43:37.671Z,2.15
2017-12-04T06:44:37.619Z,2.17
2017-12-04T06:45:37.581Z,2.19
2017-12-04T06:46:37.533Z,2.16
2017-12-04T06:47:37.490Z,2.15
2017-12-04T06:48:37.440Z,2.13
2017-12-04T06:49:37.386Z,2.13
2017-12-04T06:50:37.352Z,2.10
2017-12-04T06:51:37.303Z,2.09
2017-12-04T06:52:37.245Z,2.09
2017-12-04T06:53:37.204Z,2.12
2017-12-04T06:54:37.152Z,2.12
2017-12-04T06:55:37.114Z,2.12
2017-12-04T06:56:37.066Z,2.12
2017-12-04T06:57:37.016Z,2.22
2017-12-04T06:58:36.968Z,2.19
2017-12-04T06:59:36.929Z,2.20
2017-12-04T07:00:36.879Z,2.19
2017-12-04T07:01:36.834Z,2.19
2017-12-04T07:02:36.780Z,2.20
2017-12-04T07:03:36.742Z,2.19
2017-12-04T07:04:36.688Z,2.16
2017-12-04T07:05:36.655Z,2.15
2017-12-04T07:06:36.599Z,2.26
2017-12-04T07:07:36.565Z,2.23
2017-12-04T07:08:36.512Z,2.22
2017-12-04T07:09:36.462Z,2.19
2017-12-04T07:10:36.417Z,2.20
2017-12-04T07:11:36.368Z,2.23
2017-12-04T07:12:36.340Z,2.19
2017-12-04T07:13:36.276Z,2.28
2017-12-04T07:14:36.235Z,2.27
2017-12-04T07:15:36.182Z,2.31
2017-12-04T07:16:36.134Z,2.37
2017-12-04T07:17:36.088Z,2.30
2017-12-04T07:18:36.052Z,2.37
2017-12-04T07:19:35.994Z,2.40
2017-12-04T07:20:35.949Z,2.44
2017-12-04T07:21:35.911Z,2.40
2017-12-04T07:22:35.865Z,2.35
2017-12-04T07:23:35.814Z,2.35
2017-12-04T07:24:35.784Z,2.38
2017-12-04T07:25:35.726Z,2.40
2017-12-04T07:26:35.682Z,2.37
2017-12-04T07:27:35.642Z,2.51
2017-12-04T07:28:35.616Z,2.46
2017-12-04T07:29:35.534Z,2.51
2017-12-04T07:30:35.512Z,2.44
2017-12-04T07:31:35.440Z,2.40
2017-12-04T07:32:35.419Z,2.41
2017-12-04T07:33:35.363Z,2.48
2017-12-04T07:34:35.355Z,2.52
2017-12-04T07:35:35.259Z,2.52
2017-12-04T07:36:35.216Z,2.49
2017-12-04T07:37:35.161Z,2.44
2017-12-04T07:38:35.156Z,2.45
2017-12-04T07:39:35.083Z,2.49
2017-12-04T07:40:35.024Z,2.53
2017-12-04T07:41:36.697Z,2.49
2017-12-04T07:42:34.931Z,2.49
2017-12-04T07:43:34.896Z,2.41
2017-12-04T07:44:34.858Z,2.44
2017-12-04T07:45:34.807Z,2.51
2017-12-04T07:46:34.785Z,2.52
2017-12-04T07:47:34.718Z,2.52
2017-12-04T07:48:34.681Z,2.49
2017-12-04T07:49:34.631Z,2.53
2017-12-04T07:50:34.570Z,2.44
2017-12-04T07:51:34.527Z,2.55
2017-12-04T07:52:34.512Z,2.55
2017-12-04T07:53:34.446Z,2.53
2017-12-04T07:54:34.388Z,2.51
2017-12-04T07:55:34.338Z,2.52
2017-12-04T07:56:34.287Z,2.49
2017-12-04T07:57:35.307Z,2.53
2017-12-04T07:58:34.214Z,2.53
2017-12-04T07:59:34.167Z,2.55
2017-12-04T08:00:34.113Z,2.58
2017-12-04T08:01:34.105Z,2.59
2017-12-04T08:02:34.022Z,2.64
2017-12-04T08:03:34.013Z,2.71
2017-12-04T08:04:33.936Z,2.73
2017-12-04T08:05:34.642Z,2.64
2017-12-04T08:06:33.834Z,2.73
2017-12-04T08:07:33.806Z,2.79
2017-12-04T08:08:33.755Z,2.79
2017-12-04T08:09:33.711Z,2.92
2017-12-04T08:10:33.672Z,2.92
2017-12-04T08:11:33.613Z,2.92
2017-12-04T08:12:33.573Z,2.92
2017-12-04T08:13:33.584Z,2.89
2017-12-04T08:14:33.484Z,2.91
2017-12-04T08:15:33.426Z,2.98
2017-12-04T08:16:33.385Z,2.94
2017-12-04T08:17:33.333Z,2.91
2017-12-04T08:18:33.295Z,2.94
2017-12-04T08:19:33.260Z,2.89
2017-12-04T08:20:33.205Z,2.92
2017-12-04T08:21:33.162Z,2.92
2017-12-04T08:22:33.123Z,2.94
2017-12-04T08:23:34.695Z,2.89
2017-12-04T08:24:33.020Z,2.89
2017-12-04T08:25:32.968Z,2.92
2017-12-04T08:26:32.932Z,2.97
2017-12-04T08:27:32.889Z,2.92
2017-12-04T08:28:32.849Z,2.95
2017-12-04T08:29:32.799Z,2.92
2017-12-04T08:30:32.748Z,2.89
2017-12-04T08:31:32.698Z,2.91
2017-12-04T08:32:32.663Z,2.92
2017-12-04T08:33:32.599Z,2.91
2017-12-04T08:34:32.554Z,2.92
2017-12-04T08:35:32.503Z,2.85
2017-12-04T08:36:32.475Z,2.84
2017-12-04T08:37:32.419Z,2.87
2017-12-04T08:38:32.375Z,2.85
2017-12-04T08:39:32.343Z,2.84
2017-12-04T08:40:32.301Z,2.92
2017-12-04T08:41:32.254Z,2.87
2017-12-04T08:42:32.198Z,2.81
2017-12-04T08:43:33.154Z,2.76
2017-12-04T08:44:32.125Z,2.82
2017-12-04T08:45:32.071Z,2.84
2017-12-04T08:46:32.016Z,2.88
2017-12-04T08:47:32.054Z,2.77
2017-12-04T08:48:31.940Z,2.82
2017-12-04T08:49:31.881Z,2.79
2017-12-04T08:50:32.640Z,2.81
2017-12-04T08:51:31.802Z,2.73
2017-12-04T08:52:31.766Z,2.74
2017-12-04T08:53:31.697Z,2.66
2017-12-04T08:54:31.653Z,2.66
2017-12-04T08:55:31.611Z,2.66
2017-12-04T08:56:31.580Z,2.64
2017-12-04T08:57:31.572Z,2.74
2017-12-04T08:58:31.496Z,2.71
2017-12-04T08:59:32.162Z,2.82
2017-12-04T09:00:31.398Z,2.82
2017-12-04T09:01:31.335Z,2.89
2017-12-04T09:02:31.299Z,2.77
2017-12-04T09:03:31.246Z,2.84
2017-12-04T09:04:39.629Z,2.89
2017-12-04T09:05:31.162Z,2.70
2017-12-04T09:06:31.119Z,2.69
2017-12-04T09:07:31.071Z,2.67
2017-12-04T09:08:31.032Z,2.61
2017-12-04T09:09:30.972Z,2.49
2017-12-04T09:10:30.936Z,2.48
2017-12-04T09:11:30.890Z,2.51
2017-12-04T09:12:30.833Z,2.38
2017-12-04T09:13:30.786Z,2.31
2017-12-04T09:14:30.742Z,2.37
2017-12-04T09:15:30.691Z,2.44
2017-12-04T09:16:30.652Z,2.38
2017-12-04T09:17:30.604Z,2.35
2017-12-04T09:18:30.560Z,2.64
2017-12-04T09:19:30.514Z,2.49
2017-12-04T09:20:30.487Z,2.46
2017-12-04T09:21:30.428Z,2.49
2017-12-04T09:22:30.376Z,2.40
2017-12-04T09:23:30.360Z,2.34
2017-12-04T09:24:30.298Z,2.56
2017-12-04T09:25:30.254Z,2.53
2017-12-04T09:26:30.194Z,2.48
2017-12-04T09:27:30.166Z,2.44
2017-12-04T09:28:30.108Z,2.45
2017-12-04T09:29:30.065Z,2.30
2017-12-04T09:30:30.030Z,2.41
2017-12-04T09:31:29.974Z,2.40
2017-12-04T09:32:29.933Z,2.33
2017-12-04T09:33:29.897Z,2.55
2017-12-04T09:34:29.832Z,2.44
2017-12-04T09:35:29.786Z,2.22
2017-12-04T09:36:29.735Z,2.26
2017-12-04T09:37:29.703Z,2.28
2017-12-04T09:38:29.661Z,2.28
2017-12-04T09:39:29.613Z,2.38
2017-12-04T09:40:29.567Z,2.44
2017-12-04T09:41:29.530Z,2.37
2017-12-04T09:42:29.481Z,2.46
2017-12-04T09:43:29.436Z,2.46
2017-12-04T09:44:29.379Z,2.53
2017-12-04T09:45:29.334Z,2.66
2017-12-04T09:46:29.292Z,2.73
2017-12-04T09:47:29.251Z,2.70
2017-12-04T09:48:29.190Z,2.82
2017-12-04T09:49:29.151Z,2.89
2017-12-04T09:50:29.099Z,2.73
2017-12-04T09:51:29.065Z,2.77
2017-12-04T09:52:29.010Z,2.79
2017-12-04T09:53:28.967Z,2.89
2017-12-04T09:54:28.915Z,2.97
2017-12-04T09:55:28.877Z,2.87
2017-12-04T09:56:28.829Z,2.84
2017-12-04T09:57:28.835Z,2.81
2017-12-04T09:58:28.742Z,2.79
2017-12-04T09:59:28.694Z,2.71
2017-12-04T10:00:28.659Z,2.67
2017-12-04T10:01:28.600Z,2.74
2017-12-04T10:02:28.554Z,2.88
2017-12-04T10:03:28.517Z,2.94
2017-12-04T10:04:28.458Z,2.95
2017-12-04T10:05:28.408Z,2.88
2017-12-04T10:06:28.373Z,2.91
2017-12-04T10:07:28.328Z,3.02
2017-12-04T10:08:28.286Z,3.00
2017-12-04T10:09:28.248Z,3.05
2017-12-04T10:10:28.213Z,3.02
2017-12-04T10:11:28.147Z,3.05
2017-12-04T10:12:28.098Z,3.06
2017-12-04T10:13:28.101Z,3.02
2017-12-04T10:14:28.026Z,2.97
2017-12-04T10:15:27.967Z,3.02
2017-12-04T10:16:27.932Z,3.06
2017-12-04T10:17:27.880Z,3.02
2017-12-04T10:18:27.841Z,3.02
2017-12-04T10:19:27.806Z,2.89
2017-12-04T10:20:27.761Z,2.87
2017-12-04T10:21:27.701Z,2.76
2017-12-04T10:22:27.661Z,2.82
2017-12-04T10:23:27.640Z,2.77
2017-12-04T10:24:27.573Z,2.74
2017-12-04T10:25:27.514Z,2.89
2017-12-04T10:26:27.483Z,2.98
2017-12-04T10:27:27.488Z,3.05
2017-12-04T10:28:27.398Z,2.89
2017-12-04T10:29:27.340Z,2.92
2017-12-04T10:30:27.308Z,3.00
2017-12-04T10:31:27.240Z,3.05
2017-12-04T10:32:27.202Z,2.92
2017-12-04T10:33:27.155Z,3.05
2017-12-04T10:34:27.126Z,3.06
2017-12-04T10:35:27.076Z,3.09
2017-12-04T10:36:27.021Z,3.09
2017-12-04T10:37:26.973Z,3.07
2017-12-04T10:38:26.930Z,3.07
2017-12-04T10:39:26.886Z,3.05
2017-12-04T10:40:26.844Z,3.02
2017-12-04T10:41:26.793Z,3.12
2017-12-04T10:42:26.743Z,3.10
2017-12-04T10:43:26.705Z,3.02
2017-12-04T10:44:26.656Z,3.03
2017-12-04T10:45:26.621Z,2.89
2017-12-04T10:46:26.560Z,2.89
2017-12-04T10:47:26.524Z,2.94
2017-12-04T10:48:26.479Z,2.98
2017-12-04T10:49:26.459Z,3.02
2017-12-04T10:50:26.388Z,2.87
2017-12-04T10:51:26.349Z,2.82
2017-12-04T10:52:26.305Z,2.91
2017-12-04T10:53:26.259Z,2.91
2017-12-04T10:54:26.199Z,2.94
2017-12-04T10:55:26.156Z,2.82
2017-12-04T10:56:26.171Z,2.63
2017-12-04T10:57:26.079Z,2.58
2017-12-04T10:58:26.028Z,2.56
2017-12-04T10:59:25.969Z,2.52
2017-12-04T11:00:25.933Z,2.46
2017-12-04T11:01:25.890Z,2.56
2017-12-04T11:02:25.845Z,2.48
2017-12-04T11:03:25.788Z,2.40
2017-12-04T11:04:25.758Z,2.41
2017-12-04T11:05:25.715Z,2.53
2017-12-04T11:06:25.678Z,2.52
2017-12-04T11:07:25.718Z,2.53
2017-12-04T11:08:25.567Z,2.46
2017-12-04T11:09:25.530Z,2.34
2017-12-04T11:10:25.478Z,2.30
2017-12-04T11:11:25.428Z,2.26
2017-12-04T11:12:25.404Z,2.30
2017-12-04T11:13:25.338Z,2.26
2017-12-04T11:14:25.293Z,2.30
2017-12-04T11:15:25.255Z,2.31
2017-12-04T11:16:25.212Z,2.26
2017-12-04T11:17:25.269Z,2.26
2017-12-04T11:18:25.110Z,2.20
2017-12-04T11:19:25.070Z,2.16
2017-12-04T11:20:25.036Z,2.28
2017-12-04T11:21:24.980Z,2.23
2017-12-04T11:22:24.927Z,2.17
2017-12-04T11:23:24.886Z,2.16
2017-12-04T11:24:24.836Z,2.15
2017-12-04T11:25:24.805Z,2.17
2017-12-04T11:26:24.759Z,2.35
2017-12-04T11:27:24.713Z,2.37
2017-12-04T11:28:24.670Z,2.31
2017-12-04T11:29:24.628Z,2.28
2017-12-04T11:30:24.568Z,2.23
2017-12-04T11:31:24.534Z,2.27
2017-12-04T11:32:24.471Z,2.55
2017-12-04T11:33:24.440Z,2.48
2017-12-04T11:34:24.381Z,2.35
2017-12-04T11:35:24.356Z,2.30
2017-12-04T11:36:24.299Z,2.27
2017-12-04T11:37:24.251Z,2.22
2017-12-04T11:38:24.200Z,2.40
2017-12-04T11:39:24.161Z,2.55
2017-12-04T11:40:24.109Z,2.40
2017-12-04T11:41:24.083Z,2.30
2017-12-04T11:42:24.015Z,2.26
2017-12-04T11:43:23.980Z,2.23
2017-12-04T11:45:18.752Z,2.61
2017-12-04T11:46:18.554Z,2.69
2017-12-04T11:48:11.860Z,2.52
2017-12-04T11:49:11.634Z,2.58
2017-12-04T11:51:04.976Z,2.63
2017-12-04T11:52:04.781Z,2.63
2017-12-04T11:53:58.063Z,2.73
2017-12-04T11:54:57.776Z,2.67
2017-12-04T11:56:51.657Z,2.77
2017-12-04T11:57:51.349Z,2.92
2017-12-04T11:59:56.887Z,3.00
2017-12-04T12:00:56.613Z,3.02
2017-12-04T12:02:49.934Z,3.09
2017-12-04T12:03:49.641Z,3.06
2017-12-04T12:05:42.893Z,3.25
2017-12-04T12:06:42.722Z,3.24
2017-12-04T12:08:37.525Z,3.33
2017-12-04T12:09:37.250Z,3.31
2017-12-04T12:11:31.175Z,3.39
2017-12-04T12:12:30.836Z,3.34
2017-12-04T12:14:23.959Z,3.49
2017-12-04T12:15:23.873Z,3.50
2017-12-04T12:17:16.996Z,3.60
2017-12-04T12:18:16.948Z,3.62
2017-12-04T12:20:10.351Z,3.64
2017-12-04T12:21:10.016Z,3.65
2017-12-04T12:23:03.446Z,3.71
2017-12-04T12:24:03.129Z,3.72
2017-12-04T12:25:57.720Z,3.60
2017-12-04T12:26:57.696Z,3.71
2017-12-04T12:28:51.523Z,3.65
2017-12-04T12:29:51.211Z,3.62
2017-12-04T12:31:45.929Z,3.65
2017-12-04T12:32:45.816Z,3.82
2017-12-04T12:34:38.969Z,3.72
2017-12-04T12:35:39.095Z,3.72
2017-12-04T12:37:32.054Z,3.68
2017-12-04T12:38:31.913Z,3.72
2017-12-04T12:40:25.376Z,3.80
2017-12-04T12:41:24.975Z,3.82
2017-12-04T12:43:18.361Z,3.78
2017-12-04T12:44:18.028Z,3.78
2017-12-04T12:46:11.675Z,3.70
2017-12-04T12:47:11.857Z,3.75
2017-12-04T12:49:04.982Z,3.70
2017-12-04T12:50:04.701Z,3.75
2017-12-04T12:51:58.091Z,3.79
2017-12-04T12:52:57.706Z,3.61
2017-12-04T12:54:51.415Z,3.76
2017-12-04T12:55:52.039Z,3.71
2017-12-04T12:57:44.682Z,3.72
2017-12-04T12:58:44.338Z,3.71
2017-12-04T13:00:38.068Z,3.64
2017-12-04T13:01:37.927Z,3.58
2017-12-04T13:03:31.020Z,3.50
2017-12-04T13:04:31.008Z,3.36
2017-12-04T13:06:24.137Z,3.33
2017-12-04T13:07:24.479Z,3.34
2017-12-04T13:09:17.472Z,3.33
2017-12-04T13:10:17.104Z,3.36
2017-12-04T13:12:10.243Z,3.24
2017-12-04T13:13:10.172Z,3.24
2017-12-04T13:15:03.607Z,3.33
2017-12-04T13:16:03.312Z,3.27
2017-12-04T13:17:56.619Z,3.31
2017-12-04T13:18:56.246Z,3.33
2017-12-04T13:20:49.698Z,3.44
2017-12-04T13:21:49.300Z,3.44
2017-12-04T13:23:42.763Z,3.65
2017-12-04T13:24:42.720Z,3.58
2017-12-04T13:26:35.748Z,3.47
2017-12-04T13:27:35.469Z,3.42
2017-12-04T13:29:28.845Z,3.47
2017-12-04T13:30:28.721Z,3.30
2017-12-04T13:32:21.908Z,3.28
2017-12-04T13:33:21.580Z,3.33
2017-12-04T13:35:15.410Z,3.47
2017-12-04T13:36:15.095Z,3.47
2017-12-04T13:38:08.528Z,3.46
2017-12-04T13:39:08.463Z,3.47
2017-12-04T13:41:03.190Z,3.36
2017-12-04T13:42:02.744Z,3.39
2017-12-04T13:43:56.295Z,3.12
2017-12-04T13:44:55.923Z,3.09
2017-12-04T13:46:49.931Z,3.12
2017-12-04T13:47:49.476Z,3.10
2017-12-04T13:49:42.997Z,3.06
2017-12-04T13:50:42.642Z,2.89
2017-12-04T13:52:36.091Z,3.06
2017-12-04T13:53:35.984Z,3.09
2017-12-04T13:55:29.220Z,2.95
2017-12-04T13:56:28.872Z,3.10
2017-12-04T13:58:22.330Z,3.07
2017-12-04T13:59:22.050Z,3.02
2017-12-04T14:01:15.920Z,3.25
2017-12-04T14:02:15.650Z,3.28
2017-12-04T14:04:09.485Z,3.13
2017-12-04T14:05:09.239Z,3.24
2017-12-04T14:07:02.509Z,3.25
2017-12-04T14:08:02.248Z,3.36
2017-12-04T14:09:56.173Z,3.30
2017-12-04T14:10:55.807Z,3.27
2017-12-04T14:12:49.178Z,3.31
2017-12-04T14:13:48.866Z,3.34
2017-12-04T14:15:42.306Z,3.16
2017-12-04T14:16:41.944Z,3.25
2017-12-04T14:18:35.969Z,3.16
2017-12-04T14:19:34.985Z,3.10
2017-12-04T14:21:28.376Z,3.33
2017-12-04T14:22:28.000Z,3.36
2017-12-04T14:24:21.400Z,3.53
2017-12-04T14:25:21.123Z,3.50
2017-12-04T14:27:14.527Z,3.47